Map

Track Data

SID SEASON NUMBER BASIN SUBBASIN NAME ISO_TIME NATURE LAT LON WMO_WIND WMO_PRES WMO_AGENCY TRACK_TYPE DIST2LAND LANDFALL IFLAG USA_AGENCY USA_ATCF_ID USA_LAT USA_LON USA_RECORD USA_STATUS USA_WIND USA_PRES USA_SSHS USA_R34_NE USA_R34_SE USA_R34_SW USA_R34_NW USA_R50_NE USA_R50_SE USA_R50_SW USA_R50_NW USA_R64_NE USA_R64_SE USA_R64_SW USA_R64_NW USA_POCI USA_ROCI USA_RMW USA_EYE TOKYO_LAT TOKYO_LON TOKYO_GRADE TOKYO_WIND TOKYO_PRES TOKYO_R50_DIR TOKYO_R50_LONG TOKYO_R50_SHORT TOKYO_R30_DIR TOKYO_R30_LONG TOKYO_R30_SHORT TOKYO_LAND CMA_LAT CMA_LON CMA_CAT CMA_WIND CMA_PRES HKO_LAT HKO_LON HKO_CAT HKO_WIND HKO_PRES NEWDELHI_LAT NEWDELHI_LON NEWDELHI_GRADE NEWDELHI_WIND NEWDELHI_PRES NEWDELHI_CI NEWDELHI_DP NEWDELHI_POCI REUNION_LAT REUNION_LON REUNION_TYPE REUNION_WIND REUNION_PRES REUNION_TNUM REUNION_CI REUNION_RMW REUNION_R34_NE REUNION_R34_SE REUNION_R34_SW REUNION_R34_NW REUNION_R50_NE REUNION_R50_SE REUNION_R50_SW REUNION_R50_NW REUNION_R64_NE REUNION_R64_SE REUNION_R64_SW REUNION_R64_NW BOM_LAT BOM_LON BOM_TYPE BOM_WIND BOM_PRES BOM_TNUM BOM_CI BOM_RMW BOM_R34_NE BOM_R34_SE BOM_R34_SW BOM_R34_NW BOM_R50_NE BOM_R50_SE BOM_R50_SW BOM_R50_NW BOM_R64_NE BOM_R64_SE BOM_R64_SW BOM_R64_NW BOM_ROCI BOM_POCI BOM_EYE BOM_POS_METHOD BOM_PRES_METHOD NADI_LAT NADI_LON NADI_CAT NADI_WIND NADI_PRES WELLINGTON_LAT WELLINGTON_LON WELLINGTON_WIND WELLINGTON_PRES DS824_LAT DS824_LON DS824_STAGE DS824_WIND DS824_PRES TD9636_LAT TD9636_LON TD9636_STAGE TD9636_WIND TD9636_PRES TD9635_LAT TD9635_LON TD9635_WIND TD9635_PRES TD9635_ROCI NEUMANN_LAT NEUMANN_LON NEUMANN_CLASS NEUMANN_WIND NEUMANN_PRES MLC_LAT MLC_LON MLC_CLASS MLC_WIND MLC_PRES USA_GUST BOM_GUST BOM_GUST_PER REUNION_GUST REUNION_GUST_PER USA_SEAHGT USA_SEARAD_NE USA_SEARAD_SE USA_SEARAD_SW USA_SEARAD_NW STORM_SPEED STORM_DIR
1938223N22134 1938 38 WP MM NOT_NAMED 1938-08-11 10:00:00 NR 21.6000 133.600 main 1088 1072 __________O___ -1 21.6000 133.600 7 7 284
1938223N22134 1938 38 WP MM NOT_NAMED 1938-08-11 12:00:00 NR 21.6594 133.351 main 1072 1052 __________P___ -1 21.6594 133.351 7 7 284
1938223N22134 1938 38 WP MM NOT_NAMED 1938-08-11 15:00:00 NR 21.7510 132.970 main 1052 1044 __________P___ -1 21.7510 132.970 7 7 285
1938223N22134 1938 38 WP MM NOT_NAMED 1938-08-11 18:00:00 NR 21.8496 132.573 main 1044 1014 __________P___ -1 21.8496 132.573 7 8 285
1938223N22134 1938 38 WP MM NOT_NAMED 1938-08-11 21:00:00 NR 21.9599 132.149 main 1014 1013 __________P___ -1 21.9599 132.149 7 8 286
1938223N22134 1938 38 WP MM NOT_NAMED 1938-08-11 22:00:00 NR 22.0000 132.000 main 1013 998 __________O___ -1 22.0000 132.000 7 9 286
1938223N22134 1938 38 WP MM NOT_NAMED 1938-08-12 00:00:00 NR 22.0859 131.689 main 998 982 __________P___ -1 22.0859 131.689 7 9 287
1938223N22134 1938 38 WP MM NOT_NAMED 1938-08-12 03:00:00 NR 22.2274 131.198 main 982 927 __________P___ -1 22.2274 131.198 7 10 288
1938223N22134 1938 38 WP MM NOT_NAMED 1938-08-12 06:00:00 NR 22.3811 130.688 main 927 874 __________P___ -1 22.3811 130.688 7 10 288
1938223N22134 1938 38 WP MM NOT_NAMED 1938-08-12 09:00:00 NR 22.5441 130.171 main 874 851 __________P___ -1 22.5441 130.171 7 10 289
1938223N22134 1938 38 WP MM NOT_NAMED 1938-08-12 10:00:00 NR 22.6000 130.000 main 851 819 __________O___ -1 22.6000 130.000 7 10 290
1938223N22134 1938 38 WP MM NOT_NAMED 1938-08-12 12:00:00 NR 22.7134 129.659 main 819 754 __________P___ -1 22.7134 129.659 7 10 290
1938223N22134 1938 38 WP MM NOT_NAMED 1938-08-12 15:00:00 NR 22.8901 129.147 main 754 698 __________P___ -1 22.8901 129.147 7 10 291
1938223N22134 1938 38 WP MM NOT_NAMED 1938-08-12 18:00:00 NR 23.0690 128.643 main 698 656 __________P___ -1 23.0690 128.643 7 10 291
1938223N22134 1938 38 WP MM NOT_NAMED 1938-08-12 21:00:00 NR 23.2437 128.157 main 656 634 __________P___ -1 23.2437 128.157 7 10 291
1938223N22134 1938 38 WP MM NOT_NAMED 1938-08-12 22:00:00 NR 23.3000 128.000 main 634 601 __________O___ -1 23.3000 128.000 7 9 290
1938223N22134 1938 38 WP MM NOT_NAMED 1938-08-13 00:00:00 NR 23.3976 127.686 main 601 549 __________P___ -1 23.3976 127.686 7 9 289
1938223N22134 1938 38 WP MM NOT_NAMED 1938-08-13 03:00:00 NR 23.5378 127.234 main 549 505 __________P___ -1 23.5378 127.234 7 9 289
1938223N22134 1938 38 WP MM NOT_NAMED 1938-08-13 06:00:00 NR 23.6815 126.810 main 505 462 __________P___ -1 23.6815 126.810 7 8 292
1938223N22134 1938 38 WP MM NOT_NAMED 1938-08-13 09:00:00 NR 23.8411 126.421 main 462 450 __________P___ -1 23.8411 126.421 7 8 295
1938223N22134 1938 38 WP MM NOT_NAMED 1938-08-13 10:00:00 NR 23.9000 126.300 main 450 429 __________O___ -1 23.9000 126.300 3 8 301
1938223N22134 1938 38 WP MM NOT_NAMED 1938-08-13 12:00:00 NR 24.0405 126.053 main 429 381 __________P___ -1 24.0405 126.053 3 8 305
1938223N22134 1938 38 WP MM NOT_NAMED 1938-08-13 15:00:00 NR 24.2707 125.714 main 381 347 __________P___ -1 24.2707 125.714 3 7 309
1938223N22134 1938 38 WP MM NOT_NAMED 1938-08-13 18:00:00 NR 24.5072 125.418 main 347 324 __________P___ -1 24.5072 125.418 3 7 313
1938223N22134 1938 38 WP MM NOT_NAMED 1938-08-13 21:00:00 NR 24.7313 125.170 main 324 313 __________P___ -1 24.7313 125.170 3 6 315
1938223N22134 1938 38 WP MM NOT_NAMED 1938-08-13 22:00:00 NR 24.8000 125.100 main 313 302 __________O___ -1 24.8000 125.100 4 5 315
1938223N22134 1938 38 WP MM NOT_NAMED 1938-08-14 00:00:00 NR 24.9116 124.974 main 302 281 __________P___ -1 24.9116 124.974 4 4 317
1938223N22134 1938 38 WP MM NOT_NAMED 1938-08-14 03:00:00 NR 25.0602 124.829 main 282 272 __________P___ -1 25.0602 124.829 4 4 321
1938223N22134 1938 38 WP MM NOT_NAMED 1938-08-14 06:00:00 NR 25.2002 124.720 main 272 263 __________P___ -1 25.2002 124.720 4 3 328
1938223N22134 1938 38 WP MM NOT_NAMED 1938-08-14 09:00:00 NR 25.3469 124.630 main 263 265 __________P___ -1 25.3469 124.630 4 3 330
1938223N22134 1938 38 WP MM NOT_NAMED 1938-08-14 10:00:00 NR 25.4000 124.600 main 265 257 __________O___ -1 25.4000 124.600 4 4 333
1938223N22134 1938 38 WP MM NOT_NAMED 1938-08-14 12:00:00 NR 25.5193 124.528 main 257 253 __________P___ -1 25.5193 124.528 4 4 333
1938223N22134 1938 38 WP MM NOT_NAMED 1938-08-14 15:00:00 NR 25.7107 124.425 main 253 251 __________P___ -1 25.7107 124.425 4 4 335
1938223N22134 1938 38 WP MM NOT_NAMED 1938-08-14 18:00:00 NR 25.9145 124.328 main 251 251 __________P___ -1 25.9145 124.328 4 5 338
1938223N22134 1938 38 WP MM NOT_NAMED 1938-08-14 21:00:00 NR 26.1275 124.232 main 252 252 __________P___ -1 26.1275 124.232 4 5 339
1938223N22134 1938 38 WP MM NOT_NAMED 1938-08-14 22:00:00 NR 26.2000 124.200 main 257 255 __________O___ -1 26.2000 124.200 4 5 336
1938223N22134 1938 38 WP MM NOT_NAMED 1938-08-15 00:00:00 NR 26.3417 124.128 main 255 261 __________P___ -1 26.3417 124.128 4 5 336
1938223N22134 1938 38 WP MM NOT_NAMED 1938-08-15 03:00:00 NR 26.5604 124.020 main 268 268 __________P___ -1 26.5604 124.020 4 5 337
1938223N22134 1938 38 WP MM NOT_NAMED 1938-08-15 06:00:00 NR 26.7867 123.918 main 276 260 __________P___ -1 26.7867 123.918 4 5 340
1938223N22134 1938 38 WP MM NOT_NAMED 1938-08-15 09:00:00 NR 27.0204 123.827 main 260 254 __________P___ -1 27.0204 123.827 4 5 341
1938223N22134 1938 38 WP MM NOT_NAMED 1938-08-15 10:00:00 NR 27.1000 123.800 main 254 243 __________O___ -1 27.1000 123.800 4 5 344
1938223N22134 1938 38 WP MM NOT_NAMED 1938-08-15 12:00:00 NR 27.2636 123.753 main 243 224 __________P___ -1 27.2636 123.753 4 5 347
1938223N22134 1938 38 WP MM NOT_NAMED 1938-08-15 15:00:00 NR 27.5153 123.694 main 224 203 __________P___ -1 27.5153 123.694 4 5 349
1938223N22134 1938 38 WP MM NOT_NAMED 1938-08-15 18:00:00 NR 27.7691 123.648 main 203 198 __________P___ -1 27.7691 123.648 4 5 352
1938223N22134 1938 38 WP MM NOT_NAMED 1938-08-15 21:00:00 NR 28.0188 123.611 main 198 197 __________P___ -1 28.0188 123.611 4 5 353
1938223N22134 1938 38 WP MM NOT_NAMED 1938-08-15 22:00:00 NR 28.1000 123.600 main 197 185 __________O___ -1 28.1000 123.600 4 5 351
1938223N22134 1938 38 WP MM NOT_NAMED 1938-08-16 00:00:00 NR 28.2531 123.578 main 185 174 __________P___ -1 28.2531 123.578 4 5 356
1938223N22134 1938 38 WP MM NOT_NAMED 1938-08-16 03:00:00 NR 28.4763 123.550 main 174 156 __________P___ -1 28.4763 123.550 4 4 355
1938223N22134 1938 38 WP MM NOT_NAMED 1938-08-16 06:00:00 NR 28.6975 123.528 main 156 149 __________P___ -1 28.6975 123.528 4 5 356
1938223N22134 1938 38 WP MM NOT_NAMED 1938-08-16 09:00:00 NR 28.9229 123.507 main 149 147 __________P___ -1 28.9229 123.507 4 5 0
1938223N22134 1938 38 WP MM NOT_NAMED 1938-08-16 10:00:00 NR 29.0000 123.500 main 147 145 __________O___ -1 29.0000 123.500 4 5 0
1938223N22134 1938 38 WP MM NOT_NAMED 1938-08-16 12:00:00 NR 29.1582 123.485 main 145 145 __________P___ -1 29.1582 123.485 4 5 355
1938223N22134 1938 38 WP MM NOT_NAMED 1938-08-16 15:00:00 NR 29.4039 123.461 main 146 139 __________P___ -1 29.4039 123.461 4 5 355
1938223N22134 1938 38 WP MM NOT_NAMED 1938-08-16 18:00:00 NR 29.6568 123.435 main 145 144 __________P___ -1 29.6568 123.435 4 5 356
1938223N22134 1938 38 WP MM NOT_NAMED 1938-08-16 21:00:00 NR 29.9139 123.409 main 144 144 __________P___ -1 29.9139 123.409 4 5 354
1938223N22134 1938 38 WP MM NOT_NAMED 1938-08-16 22:00:00 NR 30.0000 123.400 main 146 __________O___ -1 30.0000 123.400 7 5 347

Digital Typhoon Data and Search

About IBTrACS Database

This database is a web-friendly format of International Best Track Archive for Climate Stewardship (IBTrACS), a global best track data archive curated by NOAA dating back to 1842.

Updated: 2021-10-21